Time;durP1;ratioP1;P1;durP2;ratioP2;P2;SDS_P1;SDS_P2;PMS_P1;PMS_P2;Temp;Humidity;BMP_temperature;BMP_pressure;BME280_temperature;BME280_humidity;BME280_pressure;Samples;Min_cycle;Max_cycle;Signal;HPM_P1;HPM_P2
2023/12/05 00:01:11;;;;;;;2.78;1.48;;;;;;;;;;4967616;28;20409;-83
2023/12/05 00:03:36;;;;;;;4.22;1.52;;;;;;;;;;4967473;28;20023;-83
2023/12/05 00:06:07;;;;;;;2.90;1.42;;;;;;;;;;4967553;28;20051;-83
2023/12/05 00:08:33;;;;;;;3.55;1.33;;;;;;;;;;4965865;28;20139;-83
2023/12/05 00:11:03;;;;;;;3.58;1.40;;;;;;;;;;4965986;28;20044;-83
2023/12/05 00:13:28;;;;;;;2.63;1.33;;;;;;;;;;4973853;28;20046;-83
2023/12/05 00:15:54;;;;;;;1.98;1.40;;;;;;;;;;4967264;28;20035;-83
2023/12/05 00:18:19;;;;;;;2.10;1.23;;;;;;;;;;4970556;28;20038;-83
2023/12/05 00:20:45;;;;;;;2.63;1.40;;;;;;;;;;4966404;28;20092;-84
2023/12/05 00:23:11;;;;;;;2.00;1.30;;;;;;;;;;4966502;28;20042;-84
2023/12/05 00:25:36;;;;;;;3.22;1.40;;;;;;;;;;4966017;28;20046;-84
2023/12/05 00:28:02;;;;;;;2.22;1.25;;;;;;;;;;4968641;28;20031;-84
2023/12/05 00:30:27;;;;;;;3.33;1.30;;;;;;;;;;4970016;28;20034;-84
2023/12/05 00:32:53;;;;;;;3.63;1.20;;;;;;;;;;4967908;28;20039;-84
2023/12/05 00:35:19;;;;;;;2.63;1.60;;;;;;;;;;4973529;28;20066;-84
2023/12/05 00:37:45;;;;;;;2.28;1.25;;;;;;;;;;4964876;28;20078;-84
2023/12/05 00:40:11;;;;;;;3.08;1.52;;;;;;;;;;4965773;28;20482;-84
2023/12/05 00:42:36;;;;;;;3.05;1.20;;;;;;;;;;4981492;28;20388;-84
2023/12/05 00:45:02;;;;;;;2.25;1.15;;;;;;;;;;4964017;28;20026;-84
2023/12/05 00:47:27;;;;;;;2.13;1.30;;;;;;;;;;4967527;28;20178;-84
2023/12/05 00:49:53;;;;;;;2.00;1.15;;;;;;;;;;4966246;28;20034;-83
2023/12/05 00:52:18;;;;;;;2.08;1.30;;;;;;;;;;4973189;28;20030;-84
2023/12/05 00:54:44;;;;;;;2.33;1.30;;;;;;;;;;4981270;28;20489;-83
2023/12/05 00:57:10;;;;;;;1.75;0.80;;;;;;;;;;4967882;28;20030;-84
2023/12/05 00:59:35;;;;;;;1.75;0.90;;;;;;;;;;4964834;28;20035;-84
2023/12/05 01:02:00;;;;;;;1.65;1.10;;;;;;;;;;4962394;28;20041;-84
2023/12/05 01:04:26;;;;;;;1.92;0.90;;;;;;;;;;4968315;28;20046;-84
2023/12/05 01:06:51;;;;;;;1.50;1.08;;;;;;;;;;4965175;28;20027;-83
2023/12/05 01:09:17;;;;;;;2.03;1.13;;;;;;;;;;4973966;28;20027;-84
2023/12/05 01:11:42;;;;;;;2.75;1.30;;;;;;;;;;4970429;28;20027;-83
2023/12/05 01:14:08;;;;;;;2.80;1.30;;;;;;;;;;4963974;28;20039;-83
2023/12/05 01:16:33;;;;;;;2.90;1.50;;;;;;;;;;4969443;28;20058;-83
2023/12/05 01:18:59;;;;;;;4.30;1.27;;;;;;;;;;4964743;28;20039;-84
2023/12/05 01:21:24;;;;;;;2.50;1.40;;;;;;;;;;4973479;28;20469;-84
2023/12/05 01:23:49;;;;;;;1.90;1.30;;;;;;;;;;4967655;28;20043;-84
2023/12/05 01:26:23;;;;;;;2.03;1.38;;;;;;;;;;4972322;28;20042;-84
2023/12/05 01:28:48;;;;;;;2.50;1.35;;;;;;;;;;4967973;28;20094;-84
2023/12/05 01:31:14;;;;;;;2.40;1.50;;;;;;;;;;4970596;28;20042;-84
2023/12/05 01:33:39;;;;;;;2.00;1.35;;;;;;;;;;4985951;28;20432;-84
2023/12/05 01:36:11;;;;;;;3.08;1.48;;;;;;;;;;4969341;28;20302;-83
2023/12/05 01:38:36;;;;;;;3.40;1.80;;;;;;;;;;4969644;28;20089;-84
2023/12/05 01:41:02;;;;;;;1.98;1.50;;;;;;;;;;4971378;28;20038;-83
2023/12/05 01:43:28;;;;;;;2.90;1.70;;;;;;;;;;4970965;28;20108;-84
2023/12/05 01:45:55;;;;;;;2.97;1.58;;;;;;;;;;4968551;28;20101;-84
2023/12/05 01:48:22;;;;;;;2.47;1.55;;;;;;;;;;4968670;28;20563;-85
2023/12/05 01:50:48;;;;;;;2.53;1.60;;;;;;;;;;4967727;28;20031;-84
2023/12/05 01:53:15;;;;;;;2.35;1.38;;;;;;;;;;4970954;28;20045;-84
2023/12/05 01:55:42;;;;;;;3.10;1.55;;;;;;;;;;4967040;28;20090;-84
2023/12/05 01:58:08;;;;;;;2.70;1.58;;;;;;;;;;4970285;28;20045;-84
2023/12/05 02:00:37;;;;;;;2.40;1.60;;;;;;;;;;4973614;28;20047;-84
2023/12/05 02:03:02;;;;;;;2.50;1.60;;;;;;;;;;4972318;28;20159;-84
2023/12/05 02:05:28;;;;;;;2.90;1.58;;;;;;;;;;4971510;28;20023;-84
2023/12/05 02:07:54;;;;;;;2.72;1.70;;;;;;;;;;4968450;28;20500;-84
2023/12/05 02:10:20;;;;;;;3.47;1.60;;;;;;;;;;4974674;28;20480;-84
2023/12/05 02:12:46;;;;;;;2.58;1.67;;;;;;;;;;4966761;28;20027;-83
2023/12/05 02:15:12;;;;;;;2.80;1.80;;;;;;;;;;4970090;28;20039;-84
2023/12/05 02:18:08;;;;;;;3.53;1.90;;;;;;;;;;4972402;28;20035;-84
2023/12/05 02:20:54;;;;;;;3.10;1.70;;;;;;;;;;4983640;28;20026;-84
2023/12/05 02:23:27;;;;;;;3.08;1.83;;;;;;;;;;4976238;28;20038;-84
2023/12/05 02:26:22;;;;;;;2.57;1.90;;;;;;;;;;4966163;28;20114;-84
2023/12/05 02:28:48;;;;;;;3.35;1.90;;;;;;;;;;4965707;28;20401;-84
2023/12/05 02:31:13;;;;;;;3.28;1.83;;;;;;;;;;4967036;28;20110;-84
2023/12/05 02:33:39;;;;;;;2.92;1.60;;;;;;;;;;4964475;28;20114;-84
2023/12/05 02:36:23;;;;;;;3.55;2.00;;;;;;;;;;4976199;28;20031;-84
2023/12/05 02:39:12;;;;;;;4.43;1.60;;;;;;;;;;4969966;28;20039;-84
2023/12/05 02:41:42;;;;;;;3.35;1.73;;;;;;;;;;4969349;28;20042;-84
2023/12/05 02:44:12;;;;;;;2.25;1.58;;;;;;;;;;4976652;28;20400;-83
2023/12/05 02:46:40;;;;;;;2.90;1.80;;;;;;;;;;4966807;28;20026;-84
2023/12/05 02:49:06;;;;;;;2.72;1.80;;;;;;;;;;4969995;28;20046;-84
2023/12/05 02:51:32;;;;;;;2.92;1.80;;;;;;;;;;4967149;28;20109;-84
2023/12/05 02:54:01;;;;;;;3.95;1.83;;;;;;;;;;4965931;28;20062;-84
2023/12/05 02:56:27;;;;;;;3.40;1.98;;;;;;;;;;4971218;28;20559;-84
2023/12/05 02:58:53;;;;;;;2.88;2.00;;;;;;;;;;4968020;28;20035;-84
2023/12/05 03:01:18;;;;;;;3.17;1.88;;;;;;;;;;4969972;28;20043;-84
2023/12/05 03:03:44;;;;;;;3.05;1.88;;;;;;;;;;4973676;28;20050;-84
2023/12/05 03:06:09;;;;;;;3.03;1.65;;;;;;;;;;4967600;28;20039;-84
2023/12/05 03:08:35;;;;;;;3.22;1.85;;;;;;;;;;4970420;28;20030;-84
2023/12/05 03:11:00;;;;;;;3.20;1.85;;;;;;;;;;4965803;28;20527;-84
2023/12/05 03:13:25;;;;;;;4.03;1.70;;;;;;;;;;4983823;28;20569;-84
2023/12/05 03:15:51;;;;;;;2.72;1.65;;;;;;;;;;4968672;28;20027;-84
2023/12/05 03:18:16;;;;;;;2.47;1.40;;;;;;;;;;4973389;28;20094;-84
2023/12/05 03:20:42;;;;;;;2.92;1.70;;;;;;;;;;4969413;28;20041;-84
2023/12/05 03:23:07;;;;;;;2.17;1.50;;;;;;;;;;4970937;28;20031;-84
2023/12/05 03:25:33;;;;;;;2.70;1.70;;;;;;;;;;4964354;28;20460;-84
2023/12/05 03:27:58;;;;;;;3.60;1.80;;;;;;;;;;4972565;28;20038;-84
2023/12/05 03:30:24;;;;;;;2.35;1.70;;;;;;;;;;4970037;28;20114;-85
2023/12/05 03:32:49;;;;;;;2.95;1.60;;;;;;;;;;4969533;28;20114;-85
2023/12/05 03:35:14;;;;;;;2.05;1.40;;;;;;;;;;4969050;28;20496;-84
2023/12/05 03:37:40;;;;;;;2.92;1.48;;;;;;;;;;4974156;28;20050;-84
2023/12/05 03:40:06;;;;;;;1.88;1.20;;;;;;;;;;4955248;28;20039;-84
2023/12/05 03:42:31;;;;;;;5.78;1.60;;;;;;;;;;4967718;28;20038;-84
2023/12/05 03:44:57;;;;;;;2.13;1.50;;;;;;;;;;4965723;28;20047;-84
2023/12/05 03:47:22;;;;;;;2.38;1.50;;;;;;;;;;4976037;28;20035;-84
2023/12/05 03:49:48;;;;;;;2.78;1.42;;;;;;;;;;4965301;28;20087;-84
2023/12/05 03:52:13;;;;;;;2.30;1.50;;;;;;;;;;4968309;28;20049;-84
2023/12/05 03:54:39;;;;;;;1.98;1.50;;;;;;;;;;4967233;28;20086;-84
2023/12/05 03:57:04;;;;;;;3.92;1.50;;;;;;;;;;4969404;28;20043;-84
2023/12/05 03:59:29;;;;;;;1.90;1.40;;;;;;;;;;4966082;28;20054;-85
2023/12/05 04:01:55;;;;;;;2.60;1.50;;;;;;;;;;4972495;28;20383;-84
2023/12/05 04:04:20;;;;;;;2.70;1.45;;;;;;;;;;4970177;28;20043;-84
2023/12/05 04:06:46;;;;;;;3.25;1.55;;;;;;;;;;4972898;28;20054;-84
2023/12/05 04:09:11;;;;;;;3.47;1.58;;;;;;;;;;4968681;28;20579;-84
2023/12/05 04:11:38;;;;;;;2.22;1.50;;;;;;;;;;4966246;28;20492;-85
2023/12/05 04:14:03;;;;;;;1.77;1.38;;;;;;;;;;4972455;28;20169;-84
2023/12/05 04:16:29;;;;;;;3.35;1.58;;;;;;;;;;4966918;28;20066;-84
2023/12/05 04:18:55;;;;;;;3.13;2.00;;;;;;;;;;4965924;28;20030;-85
2023/12/05 04:21:20;;;;;;;2.55;1.30;;;;;;;;;;4968154;28;20027;-84
2023/12/05 04:23:46;;;;;;;2.20;1.40;;;;;;;;;;4967026;28;20035;-85
2023/12/05 04:26:19;;;;;;;2.38;1.50;;;;;;;;;;4970458;28;20047;-84
2023/12/05 04:28:46;;;;;;;2.67;1.67;;;;;;;;;;4967661;28;20035;-84
2023/12/05 04:31:12;;;;;;;2.75;1.73;;;;;;;;;;4966465;28;20046;-84
2023/12/05 04:33:41;;;;;;;2.80;1.70;;;;;;;;;;4966906;28;20106;-84
2023/12/05 04:36:07;;;;;;;2.75;1.80;;;;;;;;;;4964754;28;20042;-84
2023/12/05 04:38:37;;;;;;;2.67;1.85;;;;;;;;;;4974531;28;20031;-84
2023/12/05 04:41:03;;;;;;;2.40;1.60;;;;;;;;;;4966108;28;20034;-84
2023/12/05 04:43:30;;;;;;;3.03;1.70;;;;;;;;;;4965570;28;20416;-84
2023/12/05 04:45:56;;;;;;;4.70;1.70;;;;;;;;;;4972561;28;20045;-84
2023/12/05 04:48:22;;;;;;;3.33;1.90;;;;;;;;;;4967712;28;20054;-84
2023/12/05 04:50:48;;;;;;;3.78;2.17;;;;;;;;;;4966920;28;20043;-84
2023/12/05 04:53:13;;;;;;;5.10;2.00;;;;;;;;;;4971985;28;20031;-81
2023/12/05 04:55:39;;;;;;;2.65;1.70;;;;;;;;;;4974527;28;20035;-84
2023/12/05 04:58:04;;;;;;;2.25;1.60;;;;;;;;;;4967964;28;20097;-84
2023/12/05 05:00:31;;;;;;;3.15;1.60;;;;;;;;;;4984460;28;20027;-84
2023/12/05 05:02:56;;;;;;;2.85;1.70;;;;;;;;;;4983804;28;20036;-84
2023/12/05 05:05:22;;;;;;;2.75;1.85;;;;;;;;;;4971537;28;20078;-84
2023/12/05 05:07:47;;;;;;;4.05;2.20;;;;;;;;;;4976081;28;20026;-84
2023/12/05 05:10:13;;;;;;;2.70;1.90;;;;;;;;;;4967959;28;20511;-84
2023/12/05 05:12:38;;;;;;;4.38;2.30;;;;;;;;;;4965283;28;20023;-83
2023/12/05 05:15:04;;;;;;;5.13;2.00;;;;;;;;;;4971764;28;20527;-83
2023/12/05 05:17:32;;;;;;;4.20;2.17;;;;;;;;;;4969032;28;20041;-84
2023/12/05 05:19:58;;;;;;;2.55;1.63;;;;;;;;;;4968337;28;20031;-84
2023/12/05 05:22:23;;;;;;;3.65;2.20;;;;;;;;;;4966167;28;20553;-83
2023/12/05 05:24:49;;;;;;;2.72;1.60;;;;;;;;;;4967673;28;20027;-84
2023/12/05 05:27:14;;;;;;;2.75;1.50;;;;;;;;;;4967178;28;20066;-84
2023/12/05 05:29:40;;;;;;;2.50;1.40;;;;;;;;;;4962625;28;20054;-84
2023/12/05 05:32:05;;;;;;;3.72;1.67;;;;;;;;;;4967849;28;20090;-84
2023/12/05 05:34:31;;;;;;;4.90;1.70;;;;;;;;;;4964870;28;20044;-83
2023/12/05 05:36:56;;;;;;;3.55;1.92;;;;;;;;;;4969136;28;20091;-84
2023/12/05 05:39:22;;;;;;;3.05;1.70;;;;;;;;;;4973390;28;20034;-84
2023/12/05 05:41:47;;;;;;;5.68;2.63;;;;;;;;;;4967626;28;20484;-84
2023/12/05 05:44:13;;;;;;;4.75;2.42;;;;;;;;;;4967224;28;20063;-83
2023/12/05 05:46:38;;;;;;;3.15;1.58;;;;;;;;;;4966870;28;20038;-84
2023/12/05 05:49:04;;;;;;;3.60;1.80;;;;;;;;;;4963828;28;20460;-83
2023/12/05 05:51:29;;;;;;;5.00;2.17;;;;;;;;;;4964740;28;20046;-83
2023/12/05 05:53:55;;;;;;;5.78;2.60;;;;;;;;;;4969111;28;20042;-83
2023/12/05 05:56:22;;;;;;;4.97;2.42;;;;;;;;;;4973404;28;20077;-83
2023/12/05 05:58:47;;;;;;;6.45;3.40;;;;;;;;;;4964233;28;20481;-83
2023/12/05 06:01:13;;;;;;;4.28;2.15;;;;;;;;;;4971468;28;20114;-83
2023/12/05 06:03:40;;;;;;;5.57;2.95;;;;;;;;;;4962698;28;20102;-83
2023/12/05 06:06:06;;;;;;;3.47;1.70;;;;;;;;;;4971198;28;20070;-83
2023/12/05 06:08:31;;;;;;;3.80;1.80;;;;;;;;;;4967280;28;20023;-83
2023/12/05 06:10:57;;;;;;;7.18;3.15;;;;;;;;;;4970298;28;20050;-84
2023/12/05 06:13:22;;;;;;;4.60;2.10;;;;;;;;;;4966195;28;20398;-83
2023/12/05 06:15:48;;;;;;;6.50;2.72;;;;;;;;;;4963588;28;20035;-83
2023/12/05 06:18:15;;;;;;;4.30;2.20;;;;;;;;;;4968581;28;20030;-83
2023/12/05 06:20:42;;;;;;;9.18;3.53;;;;;;;;;;4967797;28;20027;-83
2023/12/05 06:23:08;;;;;;;7.43;3.65;;;;;;;;;;4972903;28;20074;-83
2023/12/05 06:25:33;;;;;;;5.88;2.97;;;;;;;;;;4965281;28;20058;-84
2023/12/05 06:27:59;;;;;;;5.75;2.70;;;;;;;;;;4967122;28;20038;-84
2023/12/05 06:30:25;;;;;;;3.35;1.73;;;;;;;;;;4970144;28;20394;-84
2023/12/05 06:32:50;;;;;;;2.92;1.70;;;;;;;;;;4971457;28;20027;-84
2023/12/05 06:35:16;;;;;;;2.80;1.60;;;;;;;;;;4974720;28;20043;-86
2023/12/05 06:37:42;;;;;;;3.70;1.88;;;;;;;;;;4970787;28;20037;-85
2023/12/05 06:40:08;;;;;;;2.60;1.70;;;;;;;;;;4969550;28;20111;-85
2023/12/05 06:42:34;;;;;;;3.03;1.67;;;;;;;;;;4968044;28;20035;-84
2023/12/05 06:45:00;;;;;;;2.40;1.75;;;;;;;;;;4969140;28;20065;-85
2023/12/05 06:47:25;;;;;;;4.47;1.80;;;;;;;;;;4966585;28;20535;-85
2023/12/05 06:49:51;;;;;;;3.00;1.92;;;;;;;;;;4965297;28;20200;-84
2023/12/05 06:52:16;;;;;;;3.13;1.70;;;;;;;;;;4969735;28;20066;-84
2023/12/05 06:54:42;;;;;;;3.03;1.70;;;;;;;;;;4967591;28;20544;-84
2023/12/05 06:57:07;;;;;;;3.00;1.60;;;;;;;;;;4972845;28;20409;-85
2023/12/05 06:59:34;;;;;;;5.60;2.30;;;;;;;;;;4964577;28;20035;-85
2023/12/05 07:02:00;;;;;;;3.22;2.00;;;;;;;;;;4964753;28;20039;-84
2023/12/05 07:04:25;;;;;;;3.88;2.17;;;;;;;;;;4981082;28;20405;-84
2023/12/05 07:06:51;;;;;;;2.47;1.70;;;;;;;;;;4979402;28;20110;-85
2023/12/05 07:09:16;;;;;;;4.25;1.33;;;;;;;;;;4967721;28;20038;-85
2023/12/05 07:11:41;;;;;;;2.53;1.50;;;;;;;;;;4963259;28;20042;-85
2023/12/05 07:14:08;;;;;;;2.78;1.42;;;;;;;;;;4964189;28;20396;-85
2023/12/05 07:16:35;;;;;;;3.20;1.60;;;;;;;;;;4973088;28;20031;-85
2023/12/05 07:19:00;;;;;;;3.17;1.95;;;;;;;;;;4977315;28;20050;-85
2023/12/05 07:21:26;;;;;;;8.27;3.05;;;;;;;;;;4964727;28;20039;-84
2023/12/05 07:23:51;;;;;;;12.48;3.95;;;;;;;;;;4968057;28;20417;-84
2023/12/05 07:26:16;;;;;;;13.82;4.63;;;;;;;;;;4967253;28;20043;-84
2023/12/05 07:28:44;;;;;;;7.97;3.15;;;;;;;;;;4979538;28;20202;-84
2023/12/05 07:31:10;;;;;;;5.70;2.17;;;;;;;;;;4967151;28;20038;-84
2023/12/05 07:33:36;;;;;;;2.65;1.67;;;;;;;;;;4960749;28;20114;-84
2023/12/05 07:36:03;;;;;;;2.13;1.40;;;;;;;;;;4967665;28;20038;-84
2023/12/05 07:38:29;;;;;;;2.88;1.80;;;;;;;;;;4966707;28;20027;-84
2023/12/05 07:40:55;;;;;;;2.35;1.40;;;;;;;;;;4967733;28;20114;-85
2023/12/05 07:43:20;;;;;;;3.90;1.60;;;;;;;;;;4965326;28;20501;-84
2023/12/05 07:45:46;;;;;;;3.28;1.70;;;;;;;;;;4962489;28;20046;-85
2023/12/05 07:48:11;;;;;;;2.35;1.70;;;;;;;;;;4970181;28;20042;-84
2023/12/05 07:50:37;;;;;;;2.97;1.50;;;;;;;;;;4965483;28;20031;-84
2023/12/05 07:53:02;;;;;;;3.40;1.55;;;;;;;;;;4961226;28;20123;-83
2023/12/05 07:55:28;;;;;;;2.72;1.55;;;;;;;;;;4976601;28;20118;-83
2023/12/05 07:57:53;;;;;;;2.05;1.20;;;;;;;;;;4974006;28;20033;-85
2023/12/05 08:00:19;;;;;;;1.90;1.20;;;;;;;;;;4958332;28;20114;-85
2023/12/05 08:02:45;;;;;;;4.00;1.75;;;;;;;;;;4962304;28;20042;-83
2023/12/05 08:05:11;;;;;;;4.15;2.00;;;;;;;;;;4962624;28;20058;-85
2023/12/05 08:07:38;;;;;;;4.60;2.00;;;;;;;;;;4970794;28;20080;-84
2023/12/05 08:10:05;;;;;;;2.90;1.58;;;;;;;;;;4962086;28;20027;-83
2023/12/05 08:12:30;;;;;;;2.30;1.30;;;;;;;;;;4965181;28;20054;-83
2023/12/05 08:14:57;;;;;;;3.55;1.70;;;;;;;;;;4953814;28;20058;-83
2023/12/05 08:17:22;;;;;;;2.95;1.50;;;;;;;;;;4966140;28;20031;-83
2023/12/05 08:19:48;;;;;;;3.63;1.60;;;;;;;;;;4964887;28;20049;-83
2023/12/05 08:22:13;;;;;;;2.80;1.88;;;;;;;;;;4965106;28;20107;-82
2023/12/05 08:24:39;;;;;;;3.38;1.60;;;;;;;;;;4968286;28;20053;-83
2023/12/05 08:27:04;;;;;;;3.50;1.90;;;;;;;;;;4965820;28;20527;-83
2023/12/05 08:29:30;;;;;;;4.50;2.33;;;;;;;;;;4964492;28;20070;-83
2023/12/05 08:31:55;;;;;;;5.03;2.08;;;;;;;;;;4964177;28;20031;-83
2023/12/05 08:34:21;;;;;;;6.40;2.30;;;;;;;;;;4968062;28;20436;-85
2023/12/05 08:36:46;;;;;;;7.47;2.13;;;;;;;;;;4960596;28;20088;-84
2023/12/05 08:39:12;;;;;;;4.43;1.73;;;;;;;;;;4964572;28;20058;-85
2023/12/05 08:41:38;;;;;;;3.78;2.13;;;;;;;;;;4963082;28;20027;-84
2023/12/05 08:44:03;;;;;;;3.85;1.77;;;;;;;;;;4960683;28;20027;-84
2023/12/05 08:46:29;;;;;;;2.90;1.88;;;;;;;;;;4961703;28;20502;-84
2023/12/05 08:48:54;;;;;;;2.17;1.50;;;;;;;;;;4968856;28;20065;-85
2023/12/05 08:51:20;;;;;;;2.58;1.60;;;;;;;;;;4964649;28;20050;-84
2023/12/05 08:53:45;;;;;;;2.67;1.60;;;;;;;;;;4962866;28;20031;-84
2023/12/05 08:56:11;;;;;;;3.63;1.52;;;;;;;;;;4961063;28;20100;-83
2023/12/05 08:58:37;;;;;;;2.00;1.20;;;;;;;;;;4971001;28;20034;-84
2023/12/05 09:01:03;;;;;;;2.90;1.48;;;;;;;;;;4953036;28;20035;-84
2023/12/05 09:03:29;;;;;;;2.70;1.60;;;;;;;;;;4963723;28;20031;-87
2023/12/05 09:05:54;;;;;;;2.67;1.55;;;;;;;;;;4967474;28;20497;-84
2023/12/05 09:08:21;;;;;;;3.95;1.90;;;;;;;;;;4964226;28;20062;-83
2023/12/05 09:10:47;;;;;;;2.08;1.45;;;;;;;;;;4974403;28;20522;-86
2023/12/05 09:13:14;;;;;;;2.47;1.52;;;;;;;;;;4961281;28;20027;-82
2023/12/05 09:15:39;;;;;;;2.67;1.40;;;;;;;;;;4967182;28;20046;-84
2023/12/05 09:18:05;;;;;;;2.38;1.50;;;;;;;;;;4975957;28;20527;-84
2023/12/05 09:20:30;;;;;;;2.55;1.70;;;;;;;;;;4976000;28;20035;-86
2023/12/05 09:22:56;;;;;;;5.10;2.22;;;;;;;;;;4974207;28;20043;-84
2023/12/05 09:25:21;;;;;;;3.70;1.92;;;;;;;;;;4974741;28;20046;-84
2023/12/05 09:27:47;;;;;;;3.83;1.85;;;;;;;;;;4974865;28;20093;-86
2023/12/05 09:30:12;;;;;;;3.28;1.60;;;;;;;;;;4970556;28;20062;-86
2023/12/05 09:32:38;;;;;;;5.50;2.60;;;;;;;;;;4973196;28;20034;-85
2023/12/05 09:35:04;;;;;;;6.28;2.95;;;;;;;;;;4970871;28;20043;-86
2023/12/05 09:37:30;;;;;;;8.40;3.03;;;;;;;;;;4973768;28;20023;-85
2023/12/05 09:39:56;;;;;;;8.43;3.10;;;;;;;;;;4970302;28;20027;-85
2023/12/05 09:42:24;;;;;;;6.30;3.17;;;;;;;;;;4970219;28;20163;-86
2023/12/05 09:44:50;;;;;;;4.70;2.92;;;;;;;;;;4965963;28;20035;-85
2023/12/05 09:47:20;;;;;;;5.00;2.88;;;;;;;;;;4972638;28;20023;-85
2023/12/05 09:49:46;;;;;;;7.57;3.15;;;;;;;;;;4974861;28;20034;-86
2023/12/05 09:52:12;;;;;;;4.60;2.60;;;;;;;;;;4972431;28;20038;-85
2023/12/05 09:54:37;;;;;;;5.30;3.00;;;;;;;;;;4976027;28;20097;-84
2023/12/05 09:57:05;;;;;;;5.95;3.10;;;;;;;;;;4974053;28;20129;-84
2023/12/05 09:59:30;;;;;;;6.63;2.58;;;;;;;;;;4981246;28;20035;-85
2023/12/05 10:02:01;;;;;;;6.95;3.22;;;;;;;;;;4983535;28;20042;-86
2023/12/05 10:04:28;;;;;;;5.60;3.05;;;;;;;;;;4982145;28;20035;-85
2023/12/05 10:06:59;;;;;;;5.68;2.97;;;;;;;;;;4994638;28;20031;-85
2023/12/05 10:09:27;;;;;;;8.50;4.63;;;;;;;;;;4975033;28;20126;-84
2023/12/05 10:11:53;;;;;;;8.18;4.70;;;;;;;;;;4973947;28;20031;-86
2023/12/05 10:14:19;;;;;;;5.88;2.90;;;;;;;;;;4975161;28;20039;-84
2023/12/05 10:16:44;;;;;;;9.18;4.97;;;;;;;;;;4973987;28;20082;-86
2023/12/05 10:19:10;;;;;;;4.85;2.67;;;;;;;;;;4974385;28;20027;-85
2023/12/05 10:21:36;;;;;;;4.72;2.40;;;;;;;;;;4984245;28;20058;-84
2023/12/05 10:24:02;;;;;;;5.20;2.70;;;;;;;;;;4975021;28;20412;-83
2023/12/05 10:26:28;;;;;;;4.45;2.50;;;;;;;;;;4971411;28;20038;-84
2023/12/05 10:28:57;;;;;;;5.15;3.00;;;;;;;;;;4976224;28;20119;-86
2023/12/05 10:31:23;;;;;;;5.70;3.40;;;;;;;;;;4977355;28;20051;-86
2023/12/05 10:33:52;;;;;;;5.93;2.65;;;;;;;;;;4980333;28;20090;-87
2023/12/05 10:36:18;;;;;;;5.72;2.78;;;;;;;;;;4980811;28;20065;-86
2023/12/05 10:38:45;;;;;;;7.78;2.70;;;;;;;;;;4992948;28;20039;-86
2023/12/05 10:41:11;;;;;;;4.68;3.00;;;;;;;;;;4982599;28;20054;-86
2023/12/05 10:43:37;;;;;;;3.80;2.40;;;;;;;;;;4969019;28;20063;-86
2023/12/05 10:46:05;;;;;;;4.00;2.63;;;;;;;;;;4979822;28;20489;-85
2023/12/05 10:48:31;;;;;;;8.93;3.97;;;;;;;;;;4977745;28;20038;-86
2023/12/05 10:50:56;;;;;;;6.05;3.95;;;;;;;;;;4974764;28;20030;-85
2023/12/05 10:53:22;;;;;;;6.30;3.53;;;;;;;;;;4978131;28;20067;-85
2023/12/05 10:55:48;;;;;;;6.82;2.92;;;;;;;;;;4980776;28;20042;-85
2023/12/05 10:58:14;;;;;;;4.75;2.50;;;;;;;;;;4980823;28;20077;-86
2023/12/05 11:00:40;;;;;;;4.22;2.50;;;;;;;;;;4983545;28;20035;-85
2023/12/05 11:03:06;;;;;;;5.63;2.67;;;;;;;;;;4980729;28;20042;-85
2023/12/05 11:05:35;;;;;;;7.53;3.15;;;;;;;;;;4979219;28;20046;-86
2023/12/05 11:08:03;;;;;;;5.38;2.80;;;;;;;;;;4982862;28;20049;-87
2023/12/05 11:10:29;;;;;;;5.90;3.42;;;;;;;;;;4980057;28;20062;-87
2023/12/05 11:12:58;;;;;;;7.30;3.85;;;;;;;;;;4981051;28;20074;-86
2023/12/05 11:15:34;;;;;;;7.78;4.05;;;;;;;;;;4989580;28;20043;-86
2023/12/05 11:18:02;;;;;;;6.43;3.20;;;;;;;;;;4976444;28;20050;-87
2023/12/05 11:20:54;;;;;;;5.68;2.88;;;;;;;;;;4980422;28;20046;-87
2023/12/05 11:23:36;;;;;;;5.90;3.30;;;;;;;;;;4978050;28;20039;-86
2023/12/05 11:26:05;;;;;;;6.38;3.05;;;;;;;;;;4976382;28;20047;-86
2023/12/05 11:28:33;;;;;;;3.90;2.50;;;;;;;;;;4992578;28;20081;-86
2023/12/05 11:31:29;;;;;;;3.47;2.40;;;;;;;;;;4981269;28;20026;-86
2023/12/05 11:34:27;;;;;;;3.83;2.47;;;;;;;;;;4978795;28;20027;-87
2023/12/05 11:37:22;;;;;;;10.30;3.10;;;;;;;;;;4981309;28;20524;-86
2023/12/05 11:39:49;;;;;;;9.50;6.38;;;;;;;;;;4980797;28;20035;-86
2023/12/05 11:42:15;;;;;;;5.32;3.65;;;;;;;;;;4980270;28;20018;-86
2023/12/05 11:44:42;;;;;;;5.13;3.17;;;;;;;;;;4991152;28;20182;-86
2023/12/05 11:47:16;;;;;;;6.80;3.90;;;;;;;;;;4975087;28;20560;-86
2023/12/05 11:49:54;;;;;;;6.05;3.90;;;;;;;;;;4979132;28;20030;-86
2023/12/05 11:52:22;;;;;;;4.88;3.40;;;;;;;;;;4983391;28;20066;-86
2023/12/05 11:54:49;;;;;;;4.68;3.20;;;;;;;;;;4975638;28;20512;-85
2023/12/05 11:57:16;;;;;;;7.32;3.35;;;;;;;;;;4981478;28;20030;-85
2023/12/05 11:59:43;;;;;;;5.13;3.13;;;;;;;;;;4981264;28;20097;-86
2023/12/05 12:02:12;;;;;;;8.40;4.30;;;;;;;;;;4987440;28;20039;-86
2023/12/05 12:04:38;;;;;;;8.18;4.38;;;;;;;;;;4972595;28;20058;-86
2023/12/05 12:07:04;;;;;;;5.72;3.22;;;;;;;;;;4979131;28;20042;-85
2023/12/05 12:09:36;;;;;;;4.00;2.42;;;;;;;;;;4987783;28;20049;-85
2023/12/05 12:12:03;;;;;;;5.22;2.63;;;;;;;;;;4973292;28;20445;-86
2023/12/05 12:14:30;;;;;;;5.40;2.70;;;;;;;;;;4976897;28;20030;-86
2023/12/05 12:16:57;;;;;;;8.13;3.47;;;;;;;;;;4972055;28;20046;-85
2023/12/05 12:19:23;;;;;;;8.10;3.03;;;;;;;;;;4979925;28;20039;-85
2023/12/05 12:21:49;;;;;;;6.53;3.13;;;;;;;;;;4983504;28;20130;-85
2023/12/05 12:24:23;;;;;;;5.90;2.92;;;;;;;;;;4982515;28;20166;-85
2023/12/05 12:26:54;;;;;;;;;;;;;;;;;;4974352;28;20059;-83
2023/12/05 12:29:21;;;;;;;5.18;3.25;;;;;;;;;;4981314;28;20699;-85
2023/12/05 12:31:47;;;;;;;5.85;3.65;;;;;;;;;;4975476;28;20023;-85
2023/12/05 12:34:25;;;;;;;6.38;3.83;;;;;;;;;;4976836;28;20031;-86
2023/12/05 12:36:51;;;;;;;6.93;3.90;;;;;;;;;;4980847;28;20062;-86
2023/12/05 12:39:17;;;;;;;5.63;3.28;;;;;;;;;;4980697;28;20031;-86
2023/12/05 12:41:42;;;;;;;4.13;2.00;;;;;;;;;;4980570;28;20493;-84
2023/12/05 12:44:13;;;;;;;4.38;2.55;;;;;;;;;;4983555;28;20493;-85
2023/12/05 12:46:40;;;;;;;4.53;2.50;;;;;;;;;;4981468;28;20043;-84
2023/12/05 12:49:06;;;;;;;6.30;3.15;;;;;;;;;;4985768;28;20137;-84
2023/12/05 12:51:34;;;;;;;5.38;2.50;;;;;;;;;;4982006;28;20121;-84
2023/12/05 12:54:02;;;;;;;3.97;2.53;;;;;;;;;;4974291;28;20038;-85
2023/12/05 12:56:36;;;;;;;7.47;3.92;;;;;;;;;;4976724;28;20039;-86
2023/12/05 12:59:03;;;;;;;7.05;3.90;;;;;;;;;;4971493;28;20056;-86
2023/12/05 13:01:38;;;;;;;6.88;3.47;;;;;;;;;;4982175;28;20025;-85
2023/12/05 13:04:10;;;;;;;5.65;3.00;;;;;;;;;;4985482;28;20083;-86
2023/12/05 13:06:37;;;;;;;7.00;3.20;;;;;;;;;;4983747;28;20035;-86
2023/12/05 13:09:15;;;;;;;5.13;3.35;;;;;;;;;;4980403;28;20385;-86
2023/12/05 13:11:42;;;;;;;7.68;4.72;;;;;;;;;;4993894;28;20031;-85
2023/12/05 13:14:09;;;;;;;12.82;6.47;;;;;;;;;;4977072;28;20092;-87
2023/12/05 13:16:39;;;;;;;7.70;4.05;;;;;;;;;;4976770;28;20094;-87
2023/12/05 13:19:05;;;;;;;8.32;4.80;;;;;;;;;;4975964;28;20035;-86
2023/12/05 13:21:34;;;;;;;12.10;7.05;;;;;;;;;;4982536;28;20042;-86
2023/12/05 13:24:01;;;;;;;9.10;3.60;;;;;;;;;;4988510;28;20488;-86
2023/12/05 13:26:27;;;;;;;10.40;5.88;;;;;;;;;;4985442;28;20050;-86
2023/12/05 13:28:52;;;;;;;7.03;4.03;;;;;;;;;;4980842;28;20034;-87
2023/12/05 13:31:18;;;;;;;7.53;4.50;;;;;;;;;;4986952;28;20034;-86
2023/12/05 13:33:43;;;;;;;7.95;3.80;;;;;;;;;;4979677;28;20038;-86
2023/12/05 13:36:09;;;;;;;9.73;4.38;;;;;;;;;;4981718;28;20039;-87
2023/12/05 13:38:35;;;;;;;12.27;5.60;;;;;;;;;;4976187;28;20030;-85
2023/12/05 13:41:00;;;;;;;11.02;4.95;;;;;;;;;;4968415;28;20027;-84
2023/12/05 13:43:26;;;;;;;8.05;3.90;;;;;;;;;;4977041;28;20038;-85
2023/12/05 13:45:52;;;;;;;10.15;5.43;;;;;;;;;;4975676;28;20377;-86
2023/12/05 13:48:17;;;;;;;7.95;4.47;;;;;;;;;;4991517;28;20818;-85
2023/12/05 13:50:43;;;;;;;7.05;4.25;;;;;;;;;;4971638;28;20486;-83
2023/12/05 13:53:08;;;;;;;7.68;4.28;;;;;;;;;;4978124;28;20039;-84
2023/12/05 13:55:34;;;;;;;7.57;4.20;;;;;;;;;;4975620;28;20050;-88
2023/12/05 13:57:59;;;;;;;8.63;4.20;;;;;;;;;;4979100;28;20050;-91
2023/12/05 14:00:25;;;;;;;6.75;4.00;;;;;;;;;;4976982;28;20154;-87
2023/12/05 14:02:51;;;;;;;6.95;4.07;;;;;;;;;;4981185;28;20094;-87
2023/12/05 14:05:16;;;;;;;8.43;4.35;;;;;;;;;;4999783;28;20043;-88
2023/12/05 14:07:43;;;;;;;7.80;4.32;;;;;;;;;;4985533;28;20066;-87
2023/12/05 14:10:09;;;;;;;9.82;4.82;;;;;;;;;;4986495;28;20039;-87
2023/12/05 14:12:35;;;;;;;10.07;6.35;;;;;;;;;;4988283;28;20043;-87
2023/12/05 14:15:01;;;;;;;9.02;5.95;;;;;;;;;;4984718;28;20063;-87
2023/12/05 14:17:26;;;;;;;8.80;4.70;;;;;;;;;;4985120;28;20046;-87
2023/12/05 14:19:52;;;;;;;8.32;4.32;;;;;;;;;;4979762;28;20104;-87
2023/12/05 14:22:17;;;;;;;10.77;4.88;;;;;;;;;;4980098;28;20046;-87
2023/12/05 14:24:43;;;;;;;11.02;4.47;;;;;;;;;;4984248;28;20061;-88
2023/12/05 14:27:08;;;;;;;8.40;4.72;;;;;;;;;;4985462;28;20038;-87
2023/12/05 14:29:34;;;;;;;7.30;4.20;;;;;;;;;;4982534;28;20049;-87
2023/12/05 14:31:59;;;;;;;7.07;3.90;;;;;;;;;;4982004;28;20027;-87
2023/12/05 14:34:24;;;;;;;9.45;5.20;;;;;;;;;;4976124;28;20158;-91
2023/12/05 14:36:50;;;;;;;8.88;4.70;;;;;;;;;;4977085;28;20524;-88
2023/12/05 14:39:17;;;;;;;13.00;6.53;;;;;;;;;;4971851;28;20113;-88
2023/12/05 14:41:44;;;;;;;8.50;4.90;;;;;;;;;;4976383;28;20527;-88